createdAt,value
2022-08-22T00:02:19.798Z,19.90
2022-08-22T00:02:58.605Z,21.40
2022-08-22T00:02:58.997Z,20.10
2022-08-22T00:02:59.615Z,22.00
2022-08-22T00:04:56.080Z,19.80
2022-08-22T00:07:32.910Z,19.80
2022-08-22T00:10:25.659Z,19.90
2022-08-22T00:13:08.462Z,19.90
2022-08-22T00:15:44.237Z,19.80
2022-08-22T00:18:30.099Z,19.90
2022-08-22T00:21:18.881Z,19.80
2022-08-22T00:24:04.817Z,19.80
2022-08-22T00:26:59.618Z,19.70
2022-08-22T00:29:46.511Z,19.70
2022-08-22T00:32:35.712Z,19.80
2022-08-22T00:35:22.294Z,19.70
2022-08-22T00:38:05.995Z,19.80
2022-08-22T00:40:57.990Z,19.70
2022-08-22T00:43:43.461Z,19.80
2022-08-22T00:46:35.441Z,19.80
2022-08-22T00:49:24.509Z,19.90
2022-08-22T00:52:30.919Z,19.80
2022-08-22T00:55:18.711Z,19.80
2022-08-22T00:57:56.177Z,19.70
2022-08-22T01:00:26.830Z,19.90
2022-08-22T01:03:11.780Z,19.80
2022-08-22T01:06:06.307Z,19.70
2022-08-22T01:09:04.853Z,19.80
2022-08-22T01:12:06.857Z,19.80
2022-08-22T01:15:08.743Z,19.80
2022-08-22T01:17:59.082Z,19.80
2022-08-22T01:20:51.518Z,19.80
2022-08-22T01:23:40.526Z,19.90
2022-08-22T01:26:26.785Z,19.80
2022-08-22T01:29:30.892Z,19.80
2022-08-22T01:32:56.955Z,19.80
2022-08-22T01:36:03.168Z,19.80
2022-08-22T01:38:49.423Z,19.80
2022-08-22T01:41:20.182Z,19.80
2022-08-22T01:44:00.358Z,19.80
2022-08-22T01:46:49.708Z,19.90
2022-08-22T01:49:35.026Z,19.80
2022-08-22T01:52:09.906Z,19.90
2022-08-22T01:55:02.152Z,19.90
2022-08-22T01:57:29.635Z,19.80
2022-08-22T02:00:05.111Z,19.90
2022-08-22T02:02:41.437Z,19.90
2022-08-22T02:05:18.900Z,19.90
2022-08-22T02:07:46.625Z,19.80
2022-08-22T02:10:27.909Z,19.80
2022-08-22T02:13:14.000Z,19.80
2022-08-22T02:15:41.455Z,19.80
2022-08-22T02:18:28.416Z,19.90
2022-08-22T02:21:16.120Z,19.80
2022-08-22T02:23:51.001Z,19.90
2022-08-22T02:26:26.367Z,19.80
2022-08-22T02:29:01.927Z,19.80
2022-08-22T02:31:56.712Z,19.80
2022-08-22T02:35:15.215Z,19.80
2022-08-22T02:38:19.807Z,19.80
2022-08-22T02:40:53.032Z,19.80
2022-08-22T02:43:42.093Z,19.70
2022-08-22T02:46:44.774Z,19.80
2022-08-22T02:49:21.011Z,19.80
2022-08-22T02:52:00.463Z,19.80
2022-08-22T02:54:38.972Z,19.80
2022-08-22T02:57:33.949Z,19.80
2022-08-22T03:00:32.319Z,19.80
2022-08-22T03:03:03.707Z,19.80
2022-08-22T03:05:37.007Z,19.70
2022-08-22T03:08:10.440Z,19.80
2022-08-22T03:10:47.579Z,19.70
2022-08-22T03:13:26.278Z,19.70
2022-08-22T03:16:00.874Z,19.80
2022-08-22T03:18:59.005Z,19.80
2022-08-22T03:21:54.813Z,19.80
2022-08-22T03:24:49.292Z,19.80
2022-08-22T03:27:33.300Z,19.70
2022-08-22T03:30:08.930Z,19.80
2022-08-22T03:32:53.205Z,19.80
2022-08-22T03:35:54.513Z,19.90
2022-08-22T03:38:33.928Z,19.80
2022-08-22T03:41:09.107Z,19.80
2022-08-22T03:43:48.803Z,19.90
2022-08-22T03:46:44.091Z,19.80
2022-08-22T03:49:11.701Z,19.90
2022-08-22T03:51:38.841Z,19.80
2022-08-22T03:54:06.140Z,19.80
2022-08-22T03:56:43.298Z,19.80
2022-08-22T03:59:44.296Z,19.80
2022-08-22T04:02:42.944Z,19.90
2022-08-22T04:05:26.341Z,19.80
2022-08-22T04:08:26.305Z,19.90
2022-08-22T04:11:18.236Z,19.90
2022-08-22T04:14:00.205Z,19.90
2022-08-22T04:16:46.251Z,19.80
2022-08-22T04:19:42.793Z,19.90
2022-08-22T04:22:33.469Z,19.80
2022-08-22T04:25:11.697Z,19.90
2022-08-22T04:27:42.029Z,19.90
2022-08-22T04:30:34.877Z,19.90
2022-08-22T04:33:08.274Z,19.90
2022-08-22T04:35:50.572Z,20.00
2022-08-22T04:38:41.245Z,20.10
2022-08-22T04:41:25.827Z,20.20
2022-08-22T04:44:01.507Z,20.20
2022-08-22T04:46:45.860Z,20.20
2022-08-22T04:49:31.657Z,20.30
2022-08-22T04:52:30.503Z,20.30
2022-08-22T04:55:32.057Z,20.40
2022-08-22T04:58:19.952Z,20.40
2022-08-22T05:01:13.851Z,20.40
2022-08-22T05:03:49.351Z,20.50
2022-08-22T05:06:20.242Z,20.50
2022-08-22T05:08:53.789Z,20.50
2022-08-22T05:11:24.616Z,20.60
2022-08-22T05:13:58.831Z,20.60
2022-08-22T05:16:31.545Z,20.70
2022-08-22T05:19:28.571Z,20.70
2022-08-22T05:22:02.245Z,20.70
2022-08-22T05:24:52.353Z,20.70
2022-08-22T05:27:28.357Z,20.80
2022-08-22T05:30:05.244Z,20.90
2022-08-22T05:33:04.646Z,20.90
2022-08-22T05:35:50.131Z,20.80
2022-08-22T05:38:23.796Z,20.80
2022-08-22T05:40:59.014Z,20.80
2022-08-22T05:43:27.073Z,20.70
2022-08-22T05:45:58.468Z,20.60
2022-08-22T05:48:43.625Z,20.50
2022-08-22T05:51:22.408Z,20.40
2022-08-22T05:53:58.453Z,20.30
2022-08-22T05:57:07.824Z,20.30
2022-08-22T05:59:39.214Z,20.20
2022-08-22T06:02:09.792Z,20.10
2022-08-22T06:04:54.330Z,20.10
2022-08-22T06:07:35.227Z,20.10
2022-08-22T06:10:20.375Z,20.20
2022-08-22T06:13:01.453Z,20.20
2022-08-22T06:16:10.699Z,20.30
2022-08-22T06:18:42.987Z,20.30
2022-08-22T06:21:18.184Z,20.40
2022-08-22T06:24:08.977Z,20.40
2022-08-22T06:26:40.503Z,20.40
2022-08-22T06:29:09.978Z,20.50
2022-08-22T06:31:44.818Z,20.50
2022-08-22T06:34:25.502Z,20.50
2022-08-22T06:36:56.704Z,20.60
2022-08-22T06:39:44.312Z,20.70
2022-08-22T06:42:39.739Z,20.70
2022-08-22T06:45:31.615Z,20.70
2022-08-22T06:48:05.008Z,20.80
2022-08-22T06:50:39.389Z,20.90
2022-08-22T06:53:11.976Z,20.90
2022-08-22T06:55:43.827Z,20.90
2022-08-22T06:58:30.953Z,21.00
2022-08-22T07:01:38.400Z,21.10
2022-08-22T07:04:10.698Z,21.20
2022-08-22T07:06:45.352Z,21.10
2022-08-22T07:09:31.329Z,21.10
2022-08-22T07:12:02.413Z,21.00
2022-08-22T07:14:40.830Z,21.00
2022-08-22T07:17:16.643Z,20.90
2022-08-22T07:19:56.423Z,21.00
2022-08-22T07:22:33.942Z,20.90
2022-08-22T07:25:08.651Z,21.00
2022-08-22T07:28:04.028Z,21.00
2022-08-22T07:30:49.727Z,21.00
2022-08-22T07:33:39.571Z,21.00
2022-08-22T07:36:36.222Z,21.00
2022-08-22T07:39:21.848Z,21.10
2022-08-22T07:42:02.288Z,21.20
2022-08-22T07:44:58.853Z,21.10
2022-08-22T07:47:36.364Z,21.10
2022-08-22T07:50:08.506Z,21.00
2022-08-22T07:52:43.252Z,21.00
2022-08-22T07:55:20.301Z,21.10
2022-08-22T07:58:04.056Z,21.00
2022-08-22T08:00:32.949Z,21.00
2022-08-22T08:03:07.377Z,21.00
2022-08-22T08:05:37.472Z,21.00
2022-08-22T08:08:19.122Z,21.10
2022-08-22T08:10:49.472Z,21.10
2022-08-22T08:13:25.033Z,21.20
2022-08-22T08:15:53.287Z,21.30
2022-08-22T08:18:26.225Z,21.30
2022-08-22T08:20:58.173Z,21.40
2022-08-22T08:23:29.423Z,21.40
2022-08-22T08:26:00.494Z,21.40
2022-08-22T08:28:34.616Z,21.60
2022-08-22T08:31:27.219Z,21.50
2022-08-22T08:34:10.742Z,21.60
2022-08-22T08:36:50.149Z,21.50
2022-08-22T08:39:44.826Z,21.60
2022-08-22T08:43:00.051Z,21.60
2022-08-22T08:45:52.482Z,21.60
2022-08-22T08:48:43.977Z,21.70
2022-08-22T08:51:46.328Z,21.70
2022-08-22T08:54:35.328Z,21.90
2022-08-22T08:57:25.940Z,22.00
2022-08-22T09:00:12.276Z,22.00
2022-08-22T09:03:15.506Z,22.00
2022-08-22T09:05:57.570Z,22.00
2022-08-22T09:08:50.713Z,22.00
2022-08-22T09:11:59.309Z,22.00
2022-08-22T09:14:35.587Z,22.10
2022-08-22T09:17:30.882Z,22.10
2022-08-22T09:20:37.618Z,22.10
2022-08-22T09:23:35.276Z,22.20
2022-08-22T09:26:32.562Z,22.30
2022-08-22T09:29:21.723Z,22.40
2022-08-22T09:32:14.864Z,22.50
2022-08-22T09:35:28.366Z,22.50
2022-08-22T09:38:41.165Z,22.50
2022-08-22T09:41:35.822Z,22.70
2022-08-22T09:44:17.802Z,22.90
2022-08-22T09:46:51.570Z,23.00
2022-08-22T09:49:43.018Z,23.00
2022-08-22T09:52:51.297Z,23.00
2022-08-22T09:55:35.196Z,23.10
2022-08-22T09:58:21.371Z,23.10
2022-08-22T10:01:21.183Z,23.30
2022-08-22T10:04:26.002Z,23.50
2022-08-22T10:07:17.291Z,23.70
2022-08-22T10:10:04.187Z,23.70
2022-08-22T10:12:38.096Z,23.60
2022-08-22T10:15:21.528Z,23.50
2022-08-22T10:18:10.476Z,23.50
2022-08-22T10:21:04.418Z,23.40
2022-08-22T10:24:33.256Z,23.20
2022-08-22T10:27:14.256Z,23.00
2022-08-22T10:29:53.843Z,23.00
2022-08-22T10:32:27.118Z,23.00
2022-08-22T10:35:17.306Z,22.90
2022-08-22T10:38:01.362Z,23.00
2022-08-22T10:40:50.420Z,22.90
2022-08-22T10:43:20.599Z,22.90
2022-08-22T10:46:14.842Z,22.70
2022-08-22T10:48:58.692Z,22.70
2022-08-22T10:51:50.062Z,22.90
2022-08-22T10:54:39.256Z,23.00
2022-08-22T10:57:26.142Z,23.20
2022-08-22T11:00:11.309Z,23.30
2022-08-22T11:03:01.488Z,23.30
2022-08-22T11:06:00.736Z,23.50
2022-08-22T11:08:39.934Z,23.70
2022-08-22T11:11:34.937Z,23.90
2022-08-22T11:14:39.747Z,24.10
2022-08-22T11:17:41.647Z,24.20
2022-08-22T11:20:21.604Z,24.20
2022-08-22T11:23:12.363Z,24.20
2022-08-22T11:25:46.193Z,24.30
2022-08-22T11:28:41.963Z,24.40
2022-08-22T11:31:36.863Z,24.60
2022-08-22T11:34:25.688Z,24.60
2022-08-22T11:37:09.570Z,24.70
2022-08-22T11:39:49.284Z,24.70
2022-08-22T11:42:58.349Z,24.70
2022-08-22T11:45:36.097Z,24.60
2022-08-22T11:48:39.654Z,24.50
2022-08-22T11:51:38.529Z,24.70
2022-08-22T11:54:30.952Z,24.90
2022-08-22T11:57:27.570Z,25.00
2022-08-22T12:00:21.155Z,24.80
2022-08-22T12:03:19.202Z,24.60
2022-08-22T12:06:08.885Z,24.50
2022-08-22T12:08:36.400Z,24.50
2022-08-22T12:11:27.631Z,24.80
2022-08-22T12:14:06.416Z,24.90
2022-08-22T12:16:55.626Z,24.70
2022-08-22T12:20:16.102Z,24.70
2022-08-22T12:22:52.866Z,24.60
2022-08-22T12:25:57.765Z,24.80
2022-08-22T12:28:40.481Z,24.90
2022-08-22T12:31:38.631Z,25.00
2022-08-22T12:34:50.961Z,25.00
2022-08-22T12:37:52.026Z,24.70
2022-08-22T12:40:27.185Z,24.70
2022-08-22T12:43:04.725Z,24.60
2022-08-22T12:46:00.550Z,24.50
2022-08-22T12:49:07.559Z,24.30
2022-08-22T12:51:45.350Z,24.20
2022-08-22T12:54:32.282Z,24.20
2022-08-22T12:57:25.477Z,24.20
2022-08-22T13:00:04.671Z,24.20
2022-08-22T13:02:35.836Z,24.40
2022-08-22T13:05:26.256Z,24.50
2022-08-22T13:08:02.302Z,24.70
2022-08-22T13:10:48.395Z,24.70
2022-08-22T13:13:41.520Z,24.70
2022-08-22T13:16:16.875Z,24.70
2022-08-22T13:19:07.392Z,24.50
2022-08-22T13:21:43.710Z,24.40
2022-08-22T13:24:16.961Z,24.40
2022-08-22T13:26:56.475Z,24.40
2022-08-22T13:29:42.809Z,24.40
2022-08-22T13:32:39.297Z,24.30
2022-08-22T13:35:24.703Z,24.10
2022-08-22T13:37:58.821Z,24.00
2022-08-22T13:40:33.029Z,24.10
2022-08-22T13:43:14.026Z,24.10
2022-08-22T13:45:50.581Z,24.00
2022-08-22T13:48:23.349Z,24.00
2022-08-22T13:51:40.461Z,24.10
2022-08-22T13:54:11.292Z,24.00
2022-08-22T13:57:04.876Z,24.10
2022-08-22T13:59:53.612Z,24.00
2022-08-22T14:03:09.680Z,24.10
2022-08-22T14:05:53.261Z,24.00
2022-08-22T14:08:28.537Z,24.00
2022-08-22T14:10:58.018Z,24.00
2022-08-22T14:13:53.408Z,23.90
2022-08-22T14:16:26.041Z,23.90
2022-08-22T14:19:05.965Z,24.00
2022-08-22T14:21:41.676Z,23.90
2022-08-22T14:24:45.750Z,23.90
2022-08-22T14:27:49.905Z,23.90
2022-08-22T14:30:26.909Z,23.90
2022-08-22T14:33:09.213Z,23.70
2022-08-22T14:35:44.252Z,23.70
2022-08-22T14:38:30.517Z,23.50
2022-08-22T14:41:05.986Z,23.50
2022-08-22T14:43:33.597Z,23.50
2022-08-22T14:46:06.504Z,23.50
2022-08-22T14:48:40.876Z,23.60
2022-08-22T14:51:18.729Z,23.50
2022-08-22T14:53:50.481Z,23.60
2022-08-22T14:56:28.365Z,23.50
2022-08-22T14:59:06.920Z,23.50
2022-08-22T15:01:53.162Z,23.60
2022-08-22T15:04:34.130Z,23.60
2022-08-22T15:07:02.673Z,23.60
2022-08-22T15:09:51.216Z,23.70
2022-08-22T15:12:28.237Z,23.80
2022-08-22T15:15:07.241Z,23.80
2022-08-22T15:17:44.942Z,23.60
2022-08-22T15:20:38.232Z,23.60
2022-08-22T15:23:23.764Z,23.60
2022-08-22T15:26:02.099Z,23.60
2022-08-22T15:28:52.583Z,23.60
2022-08-22T15:31:21.168Z,23.50
2022-08-22T15:33:50.286Z,23.40
2022-08-22T15:36:25.215Z,23.20
2022-08-22T15:39:17.486Z,23.10
2022-08-22T15:41:48.572Z,23.00
2022-08-22T15:44:32.207Z,23.10
2022-08-22T15:47:10.712Z,23.00
2022-08-22T15:49:54.210Z,22.90
2022-08-22T15:52:26.170Z,23.00
2022-08-22T15:54:57.053Z,22.90
2022-08-22T15:57:39.335Z,22.90
2022-08-22T16:00:43.870Z,22.80
2022-08-22T16:03:15.344Z,22.90
2022-08-22T16:05:59.060Z,22.60
2022-08-22T16:08:52.615Z,22.60
2022-08-22T16:11:33.398Z,22.50
2022-08-22T16:14:22.203Z,22.40
2022-08-22T16:16:57.096Z,22.30
2022-08-22T16:19:27.822Z,22.40
2022-08-22T16:21:55.171Z,22.30
2022-08-22T16:24:22.543Z,22.30
2022-08-22T16:26:51.638Z,22.20
2022-08-22T16:29:50.850Z,22.20
2022-08-22T16:32:28.040Z,22.10
2022-08-22T16:34:55.608Z,22.10
2022-08-22T16:37:25.884Z,22.10
2022-08-22T16:39:59.225Z,22.00
2022-08-22T16:42:37.104Z,22.00
2022-08-22T16:45:07.539Z,21.90
2022-08-22T16:47:37.880Z,21.90
2022-08-22T16:50:19.847Z,21.80
2022-08-22T16:53:26.244Z,21.80
2022-08-22T16:56:11.433Z,21.60
2022-08-22T16:59:38.326Z,21.60
2022-08-22T17:02:20.774Z,21.50
2022-08-22T17:05:05.090Z,21.40
2022-08-22T17:08:16.816Z,21.40
2022-08-22T17:11:00.296Z,21.20
2022-08-22T17:13:53.342Z,21.20
2022-08-22T17:16:54.076Z,21.20
2022-08-22T17:19:43.733Z,21.10
2022-08-22T17:22:28.902Z,21.00
2022-08-22T17:25:39.049Z,20.90
2022-08-22T17:28:41.288Z,20.90
2022-08-22T17:31:28.170Z,20.80
2022-08-22T17:34:15.175Z,20.70
2022-08-22T17:37:26.259Z,20.70
2022-08-22T17:40:17.379Z,20.70
2022-08-22T17:43:04.714Z,20.60
2022-08-22T17:45:32.115Z,20.50
2022-08-22T17:58:58.931Z,20.30
2022-08-22T18:01:40.072Z,20.30
2022-08-22T18:04:17.532Z,20.20
2022-08-22T18:06:56.313Z,20.20
2022-08-22T18:09:40.631Z,20.30
2022-08-22T18:12:23.857Z,20.20
2022-08-22T18:15:02.066Z,20.20
2022-08-22T18:17:39.897Z,20.20
2022-08-22T18:20:10.586Z,20.10
2022-08-22T18:22:48.851Z,20.20
2022-08-22T18:25:19.015Z,20.00
2022-08-22T18:27:56.705Z,20.10
2022-08-22T18:30:31.533Z,20.10
2022-08-22T18:33:29.017Z,20.00
2022-08-22T18:36:06.491Z,20.00
2022-08-22T18:38:52.314Z,20.00
2022-08-22T18:41:31.468Z,20.10
2022-08-22T18:43:59.692Z,20.10
2022-08-22T18:46:40.945Z,20.10
2022-08-22T18:49:19.811Z,20.00
2022-08-22T18:52:05.895Z,20.10
2022-08-22T18:54:54.667Z,20.10
2022-08-22T18:57:38.802Z,20.20
2022-08-22T19:00:42.461Z,20.20
2022-08-22T19:03:22.491Z,20.20
2022-08-22T19:06:16.716Z,20.20
2022-08-22T19:09:10.002Z,20.30
2022-08-22T19:11:43.332Z,20.20
2022-08-22T19:14:26.474Z,20.20
2022-08-22T19:17:15.721Z,20.20
2022-08-22T19:20:21.892Z,20.40
2022-08-22T19:22:51.075Z,20.30
2022-08-22T19:25:29.108Z,20.30
2022-08-22T19:28:11.706Z,20.20
2022-08-22T19:30:48.987Z,20.20
2022-08-22T19:33:40.432Z,20.30
2022-08-22T19:36:31.142Z,20.40
2022-08-22T19:39:09.110Z,20.30
2022-08-22T19:41:57.196Z,20.30
2022-08-22T19:44:27.614Z,20.40
2022-08-22T19:47:14.855Z,20.20
2022-08-22T19:49:51.013Z,20.20
2022-08-22T19:52:40.022Z,20.20
2022-08-22T19:55:31.619Z,20.30
2022-08-22T19:58:32.047Z,20.30
2022-08-22T20:01:28.968Z,20.40
2022-08-22T20:04:09.618Z,20.30
2022-08-22T20:06:53.777Z,20.20
2022-08-22T20:09:56.699Z,20.30
2022-08-22T20:12:29.992Z,20.30
2022-08-22T20:14:57.854Z,20.20
2022-08-22T20:17:25.337Z,20.20
2022-08-22T20:20:17.542Z,20.20
2022-08-22T20:22:52.837Z,20.20
2022-08-22T20:25:42.514Z,20.20
2022-08-22T20:28:47.821Z,20.10
2022-08-22T20:31:27.427Z,20.10
2022-08-22T20:34:05.303Z,20.00
2022-08-22T20:36:33.267Z,20.00
2022-08-22T20:39:11.228Z,19.90
2022-08-22T20:41:46.060Z,20.00
2022-08-22T20:44:33.434Z,19.90
2022-08-22T20:47:06.195Z,19.90
2022-08-22T20:49:44.698Z,19.90
2022-08-22T20:52:22.493Z,19.90
2022-08-22T20:55:04.788Z,19.80
2022-08-22T20:57:33.457Z,19.80
2022-08-22T21:00:23.255Z,19.80
2022-08-22T21:03:07.898Z,19.80
2022-08-22T21:05:40.222Z,19.80
2022-08-22T21:08:18.653Z,19.70
2022-08-22T21:11:16.432Z,19.80
2022-08-22T21:13:43.993Z,19.70
2022-08-22T21:16:19.100Z,19.70
2022-08-22T21:18:52.451Z,19.70
2022-08-22T21:21:28.917Z,19.70
2022-08-22T21:24:01.322Z,19.70
2022-08-22T21:26:32.288Z,19.60
2022-08-22T21:29:18.532Z,19.60
2022-08-22T21:32:06.097Z,19.60
2022-08-22T21:34:41.142Z,19.60
2022-08-22T21:37:17.307Z,19.60
2022-08-22T21:40:00.689Z,19.60
2022-08-22T21:42:34.737Z,19.60
2022-08-22T21:45:08.692Z,19.50
2022-08-22T21:47:43.144Z,19.50
2022-08-22T21:50:14.230Z,19.50
2022-08-22T21:53:05.089Z,19.50
2022-08-22T21:55:43.355Z,19.40
2022-08-22T21:58:36.789Z,19.50
2022-08-22T22:01:30.617Z,19.40
2022-08-22T22:04:01.085Z,19.40
2022-08-22T22:06:29.418Z,19.40
2022-08-22T22:08:58.477Z,19.40
2022-08-22T22:11:26.149Z,19.40
2022-08-22T22:13:54.240Z,19.40
2022-08-22T22:16:30.052Z,19.30
2022-08-22T22:18:57.811Z,19.20
2022-08-22T22:21:25.886Z,19.30
2022-08-22T22:23:53.961Z,19.20
2022-08-22T22:26:26.326Z,19.20
2022-08-22T22:28:54.482Z,19.10
2022-08-22T22:31:23.563Z,19.20
2022-08-22T22:33:51.556Z,19.10
2022-08-22T22:36:23.381Z,19.10
2022-08-22T22:38:52.461Z,19.00
2022-08-22T22:41:26.481Z,18.90
2022-08-22T22:43:55.596Z,19.00
2022-08-22T22:46:24.199Z,18.90
2022-08-22T22:48:52.089Z,18.90
2022-08-22T22:51:19.953Z,18.70
2022-08-22T22:53:47.563Z,18.60
2022-08-22T22:56:21.281Z,18.60
2022-08-22T22:59:00.843Z,18.50
2022-08-22T23:01:39.500Z,18.40
2022-08-22T23:04:09.490Z,18.40
2022-08-22T23:06:37.110Z,18.40
2022-08-22T23:09:04.769Z,18.40
2022-08-22T23:11:33.339Z,18.30
2022-08-22T23:14:02.845Z,18.30
2022-08-22T23:16:35.183Z,18.30
2022-08-22T23:19:09.760Z,18.30
2022-08-22T23:21:37.377Z,18.20
2022-08-22T23:24:05.693Z,18.20
2022-08-22T23:26:33.923Z,18.00
2022-08-22T23:29:05.012Z,18.00
2022-08-22T23:31:51.539Z,18.00
2022-08-22T23:34:25.176Z,17.90
2022-08-22T23:36:54.416Z,17.80
2022-08-22T23:39:23.536Z,17.70
2022-08-22T23:41:51.336Z,17.70
2022-08-22T23:44:22.082Z,17.60
2022-08-22T23:46:49.797Z,17.60
2022-08-22T23:49:19.537Z,17.60
2022-08-22T23:51:48.308Z,17.50
2022-08-22T23:54:18.074Z,17.50
2022-08-22T23:56:51.743Z,17.50
2022-08-22T23:59:30.066Z,17.40
